sensor_id;sensor_type;location;lat;lon;timestamp;P1;durP1;ratioP1;P2;durP2;ratioP2
2011;SDS011;1009;51.436;6.972;2022-10-16T00:01:34;5.40;;;2.90;;
2011;SDS011;1009;51.436;6.972;2022-10-16T00:04:01;8.47;;;3.00;;
2011;SDS011;1009;51.436;6.972;2022-10-16T00:06:28;4.83;;;2.50;;
2011;SDS011;1009;51.436;6.972;2022-10-16T00:08:58;9.73;;;2.50;;
2011;SDS011;1009;51.436;6.972;2022-10-16T00:11:25;4.90;;;2.50;;
2011;SDS011;1009;51.436;6.972;2022-10-16T00:13:54;4.97;;;2.50;;
2011;SDS011;1009;51.436;6.972;2022-10-16T00:16:23;5.13;;;2.63;;
2011;SDS011;1009;51.436;6.972;2022-10-16T00:18:50;3.73;;;2.23;;
2011;SDS011;1009;51.436;6.972;2022-10-16T00:21:18;5.53;;;2.40;;
2011;SDS011;1009;51.436;6.972;2022-10-16T00:23:49;4.40;;;2.57;;
2011;SDS011;1009;51.436;6.972;2022-10-16T00:26:18;5.30;;;2.73;;
2011;SDS011;1009;51.436;6.972;2022-10-16T00:28:45;3.93;;;2.20;;
2011;SDS011;1009;51.436;6.972;2022-10-16T00:31:12;4.57;;;2.60;;
2011;SDS011;1009;51.436;6.972;2022-10-16T00:33:39;4.90;;;2.47;;
2011;SDS011;1009;51.436;6.972;2022-10-16T00:36:07;4.17;;;2.03;;
2011;SDS011;1009;51.436;6.972;2022-10-16T00:38:37;3.97;;;2.17;;
2011;SDS011;1009;51.436;6.972;2022-10-16T00:41:04;3.17;;;2.00;;
2011;SDS011;1009;51.436;6.972;2022-10-16T00:43:38;3.70;;;2.37;;
2011;SDS011;1009;51.436;6.972;2022-10-16T00:46:09;3.73;;;2.20;;
2011;SDS011;1009;51.436;6.972;2022-10-16T00:48:41;3.77;;;1.87;;
2011;SDS011;1009;51.436;6.972;2022-10-16T00:51:13;6.77;;;2.20;;
2011;SDS011;1009;51.436;6.972;2022-10-16T00:53:40;3.50;;;1.90;;
2011;SDS011;1009;51.436;6.972;2022-10-16T00:56:07;3.30;;;2.47;;
2011;SDS011;1009;51.436;6.972;2022-10-16T00:58:34;9.83;;;2.50;;
2011;SDS011;1009;51.436;6.972;2022-10-16T01:01:02;2.80;;;1.70;;
2011;SDS011;1009;51.436;6.972;2022-10-16T01:03:30;2.50;;;1.80;;
2011;SDS011;1009;51.436;6.972;2022-10-16T01:06:01;3.70;;;2.10;;
2011;SDS011;1009;51.436;6.972;2022-10-16T01:08:43;3.80;;;2.00;;
2011;SDS011;1009;51.436;6.972;2022-10-16T01:11:17;9.50;;;2.53;;
2011;SDS011;1009;51.436;6.972;2022-10-16T01:13:53;4.93;;;1.97;;
2011;SDS011;1009;51.436;6.972;2022-10-16T01:16:24;3.07;;;1.70;;
2011;SDS011;1009;51.436;6.972;2022-10-16T01:19:00;2.83;;;1.70;;
2011;SDS011;1009;51.436;6.972;2022-10-16T01:21:32;3.47;;;1.90;;
2011;SDS011;1009;51.436;6.972;2022-10-16T01:24:06;4.10;;;1.57;;
2011;SDS011;1009;51.436;6.972;2022-10-16T01:26:44;2.37;;;1.93;;
2011;SDS011;1009;51.436;6.972;2022-10-16T01:29:25;3.07;;;1.87;;
2011;SDS011;1009;51.436;6.972;2022-10-16T01:31:56;2.40;;;1.50;;
2011;SDS011;1009;51.436;6.972;2022-10-16T01:34:28;2.83;;;1.80;;
2011;SDS011;1009;51.436;6.972;2022-10-16T01:37:02;2.47;;;1.40;;
2011;SDS011;1009;51.436;6.972;2022-10-16T01:39:33;4.63;;;1.43;;
2011;SDS011;1009;51.436;6.972;2022-10-16T01:42:06;4.67;;;1.90;;
2011;SDS011;1009;51.436;6.972;2022-10-16T01:44:37;2.30;;;1.80;;
2011;SDS011;1009;51.436;6.972;2022-10-16T01:47:05;2.73;;;1.50;;
2011;SDS011;1009;51.436;6.972;2022-10-16T01:49:36;5.43;;;1.63;;
2011;SDS011;1009;51.436;6.972;2022-10-16T01:52:05;2.80;;;1.50;;
2011;SDS011;1009;51.436;6.972;2022-10-16T01:54:35;3.20;;;1.67;;
2011;SDS011;1009;51.436;6.972;2022-10-16T01:57:05;4.03;;;2.03;;
2011;SDS011;1009;51.436;6.972;2022-10-16T01:59:34;3.47;;;1.73;;
2011;SDS011;1009;51.436;6.972;2022-10-16T02:02:05;3.70;;;1.90;;
2011;SDS011;1009;51.436;6.972;2022-10-16T02:04:36;3.90;;;1.60;;
2011;SDS011;1009;51.436;6.972;2022-10-16T02:07:05;3.17;;;1.50;;
2011;SDS011;1009;51.436;6.972;2022-10-16T02:09:33;5.90;;;1.60;;
2011;SDS011;1009;51.436;6.972;2022-10-16T02:12:01;2.80;;;1.90;;
2011;SDS011;1009;51.436;6.972;2022-10-16T02:14:33;5.07;;;2.03;;
2011;SDS011;1009;51.436;6.972;2022-10-16T02:17:09;4.53;;;1.63;;
2011;SDS011;1009;51.436;6.972;2022-10-16T02:19:37;2.13;;;1.57;;
2011;SDS011;1009;51.436;6.972;2022-10-16T02:22:04;5.17;;;2.00;;
2011;SDS011;1009;51.436;6.972;2022-10-16T02:24:33;3.77;;;1.60;;
2011;SDS011;1009;51.436;6.972;2022-10-16T02:27:06;1.90;;;1.70;;
2011;SDS011;1009;51.436;6.972;2022-10-16T02:29:38;3.47;;;1.77;;
2011;SDS011;1009;51.436;6.972;2022-10-16T02:32:09;3.70;;;1.90;;
2011;SDS011;1009;51.436;6.972;2022-10-16T02:34:38;2.17;;;1.43;;
2011;SDS011;1009;51.436;6.972;2022-10-16T02:37:06;4.10;;;1.73;;
2011;SDS011;1009;51.436;6.972;2022-10-16T02:39:35;4.50;;;1.90;;
2011;SDS011;1009;51.436;6.972;2022-10-16T02:42:03;3.30;;;1.70;;
2011;SDS011;1009;51.436;6.972;2022-10-16T02:44:31;2.77;;;1.70;;
2011;SDS011;1009;51.436;6.972;2022-10-16T02:46:57;2.33;;;2.00;;
2011;SDS011;1009;51.436;6.972;2022-10-16T02:49:24;2.30;;;1.50;;
2011;SDS011;1009;51.436;6.972;2022-10-16T02:51:51;2.87;;;1.73;;
2011;SDS011;1009;51.436;6.972;2022-10-16T02:54:18;2.30;;;1.70;;
2011;SDS011;1009;51.436;6.972;2022-10-16T02:56:44;2.23;;;1.50;;
2011;SDS011;1009;51.436;6.972;2022-10-16T02:59:11;4.00;;;1.53;;
2011;SDS011;1009;51.436;6.972;2022-10-16T03:01:39;2.50;;;1.83;;
2011;SDS011;1009;51.436;6.972;2022-10-16T03:04:06;2.37;;;1.57;;
2011;SDS011;1009;51.436;6.972;2022-10-16T03:06:33;3.77;;;1.50;;
2011;SDS011;1009;51.436;6.972;2022-10-16T03:09:00;2.60;;;1.37;;
2011;SDS011;1009;51.436;6.972;2022-10-16T03:11:26;2.20;;;1.50;;
2011;SDS011;1009;51.436;6.972;2022-10-16T03:13:53;3.40;;;1.60;;
2011;SDS011;1009;51.436;6.972;2022-10-16T03:16:20;2.03;;;1.40;;
2011;SDS011;1009;51.436;6.972;2022-10-16T03:18:49;2.80;;;1.50;;
2011;SDS011;1009;51.436;6.972;2022-10-16T03:21:15;5.83;;;1.60;;
2011;SDS011;1009;51.436;6.972;2022-10-16T03:23:42;5.60;;;1.50;;
2011;SDS011;1009;51.436;6.972;2022-10-16T03:26:09;2.20;;;1.40;;
2011;SDS011;1009;51.436;6.972;2022-10-16T03:28:36;2.27;;;1.50;;
2011;SDS011;1009;51.436;6.972;2022-10-16T03:31:02;2.83;;;1.67;;
2011;SDS011;1009;51.436;6.972;2022-10-16T03:33:29;2.00;;;1.60;;
2011;SDS011;1009;51.436;6.972;2022-10-16T03:35:58;4.13;;;1.13;;
2011;SDS011;1009;51.436;6.972;2022-10-16T03:38:25;2.03;;;1.50;;
2011;SDS011;1009;51.436;6.972;2022-10-16T03:40:52;3.60;;;1.63;;
2011;SDS011;1009;51.436;6.972;2022-10-16T03:43:18;2.80;;;1.60;;
2011;SDS011;1009;51.436;6.972;2022-10-16T03:45:45;3.60;;;1.50;;
2011;SDS011;1009;51.436;6.972;2022-10-16T03:48:12;4.27;;;1.77;;
2011;SDS011;1009;51.436;6.972;2022-10-16T03:50:38;4.90;;;1.70;;
2011;SDS011;1009;51.436;6.972;2022-10-16T03:53:07;1.80;;;1.30;;
2011;SDS011;1009;51.436;6.972;2022-10-16T03:55:34;2.83;;;1.43;;
2011;SDS011;1009;51.436;6.972;2022-10-16T03:58:01;5.43;;;1.47;;
2011;SDS011;1009;51.436;6.972;2022-10-16T04:00:28;2.07;;;1.40;;
2011;SDS011;1009;51.436;6.972;2022-10-16T04:02:55;3.27;;;1.60;;
2011;SDS011;1009;51.436;6.972;2022-10-16T04:05:21;3.30;;;1.33;;
2011;SDS011;1009;51.436;6.972;2022-10-16T04:07:48;3.73;;;1.77;;
2011;SDS011;1009;51.436;6.972;2022-10-16T04:10:16;6.40;;;1.40;;
2011;SDS011;1009;51.436;6.972;2022-10-16T04:12:44;2.70;;;1.50;;
2011;SDS011;1009;51.436;6.972;2022-10-16T04:15:10;4.73;;;1.60;;
2011;SDS011;1009;51.436;6.972;2022-10-16T04:17:37;4.57;;;1.40;;
2011;SDS011;1009;51.436;6.972;2022-10-16T04:20:04;3.07;;;1.60;;
2011;SDS011;1009;51.436;6.972;2022-10-16T04:22:32;4.37;;;2.50;;
2011;SDS011;1009;51.436;6.972;2022-10-16T04:24:58;4.30;;;2.10;;
2011;SDS011;1009;51.436;6.972;2022-10-16T04:27:26;2.00;;;1.40;;
2011;SDS011;1009;51.436;6.972;2022-10-16T04:29:56;5.67;;;1.60;;
2011;SDS011;1009;51.436;6.972;2022-10-16T04:32:22;2.70;;;1.60;;
2011;SDS011;1009;51.436;6.972;2022-10-16T04:34:49;4.43;;;1.77;;
2011;SDS011;1009;51.436;6.972;2022-10-16T04:37:16;3.57;;;2.20;;
2011;SDS011;1009;51.436;6.972;2022-10-16T04:39:43;1.87;;;1.50;;
2011;SDS011;1009;51.436;6.972;2022-10-16T04:42:09;4.03;;;1.60;;
2011;SDS011;1009;51.436;6.972;2022-10-16T04:44:38;2.90;;;1.67;;
2011;SDS011;1009;51.436;6.972;2022-10-16T04:47:04;3.13;;;1.73;;
2011;SDS011;1009;51.436;6.972;2022-10-16T04:49:31;3.90;;;1.90;;
2011;SDS011;1009;51.436;6.972;2022-10-16T04:51:58;2.30;;;1.60;;
2011;SDS011;1009;51.436;6.972;2022-10-16T04:54:25;2.47;;;1.60;;
2011;SDS011;1009;51.436;6.972;2022-10-16T04:56:51;5.70;;;1.90;;
2011;SDS011;1009;51.436;6.972;2022-10-16T04:59:19;2.40;;;1.53;;
2011;SDS011;1009;51.436;6.972;2022-10-16T05:01:47;1.97;;;1.60;;
2011;SDS011;1009;51.436;6.972;2022-10-16T05:04:14;2.50;;;1.70;;
2011;SDS011;1009;51.436;6.972;2022-10-16T05:06:41;2.27;;;1.77;;
2011;SDS011;1009;51.436;6.972;2022-10-16T05:09:08;2.33;;;1.67;;
2011;SDS011;1009;51.436;6.972;2022-10-16T05:11:35;2.10;;;1.63;;
2011;SDS011;1009;51.436;6.972;2022-10-16T05:14:02;2.43;;;1.60;;
2011;SDS011;1009;51.436;6.972;2022-10-16T05:16:29;3.37;;;1.77;;
2011;SDS011;1009;51.436;6.972;2022-10-16T05:18:57;2.30;;;1.80;;
2011;SDS011;1009;51.436;6.972;2022-10-16T05:21:24;2.10;;;1.47;;
2011;SDS011;1009;51.436;6.972;2022-10-16T05:23:51;1.90;;;1.37;;
2011;SDS011;1009;51.436;6.972;2022-10-16T05:26:19;2.20;;;1.60;;
2011;SDS011;1009;51.436;6.972;2022-10-16T05:28:46;7.53;;;2.03;;
2011;SDS011;1009;51.436;6.972;2022-10-16T05:31:13;2.90;;;1.70;;
2011;SDS011;1009;51.436;6.972;2022-10-16T05:33:39;2.27;;;1.57;;
2011;SDS011;1009;51.436;6.972;2022-10-16T05:36:08;1.80;;;1.23;;
2011;SDS011;1009;51.436;6.972;2022-10-16T05:38:36;3.10;;;1.73;;
2011;SDS011;1009;51.436;6.972;2022-10-16T05:41:03;2.90;;;2.10;;
2011;SDS011;1009;51.436;6.972;2022-10-16T05:43:31;4.67;;;1.90;;
2011;SDS011;1009;51.436;6.972;2022-10-16T05:45:58;5.17;;;2.20;;
2011;SDS011;1009;51.436;6.972;2022-10-16T05:48:26;2.30;;;1.93;;
2011;SDS011;1009;51.436;6.972;2022-10-16T05:50:57;3.87;;;1.60;;
2011;SDS011;1009;51.436;6.972;2022-10-16T05:53:26;7.17;;;2.03;;
2011;SDS011;1009;51.436;6.972;2022-10-16T05:55:53;5.37;;;2.33;;
2011;SDS011;1009;51.436;6.972;2022-10-16T05:58:20;3.53;;;2.13;;
2011;SDS011;1009;51.436;6.972;2022-10-16T06:00:54;4.67;;;1.90;;
2011;SDS011;1009;51.436;6.972;2022-10-16T06:03:21;3.30;;;1.73;;
2011;SDS011;1009;51.436;6.972;2022-10-16T06:05:48;3.80;;;1.43;;
2011;SDS011;1009;51.436;6.972;2022-10-16T06:08:15;5.57;;;1.67;;
2011;SDS011;1009;51.436;6.972;2022-10-16T06:10:43;2.57;;;1.50;;
2011;SDS011;1009;51.436;6.972;2022-10-16T06:13:10;3.50;;;1.57;;
2011;SDS011;1009;51.436;6.972;2022-10-16T06:15:37;3.57;;;1.50;;
2011;SDS011;1009;51.436;6.972;2022-10-16T06:18:06;2.50;;;1.67;;
2011;SDS011;1009;51.436;6.972;2022-10-16T06:20:33;2.23;;;2.03;;
2011;SDS011;1009;51.436;6.972;2022-10-16T06:23:00;2.60;;;1.67;;
2011;SDS011;1009;51.436;6.972;2022-10-16T06:25:29;5.00;;;1.83;;
2011;SDS011;1009;51.436;6.972;2022-10-16T06:27:57;3.57;;;1.87;;
2011;SDS011;1009;51.436;6.972;2022-10-16T06:30:23;3.23;;;1.70;;
2011;SDS011;1009;51.436;6.972;2022-10-16T06:32:50;2.90;;;1.70;;
2011;SDS011;1009;51.436;6.972;2022-10-16T06:35:17;2.90;;;1.83;;
2011;SDS011;1009;51.436;6.972;2022-10-16T06:37:44;2.50;;;1.80;;
2011;SDS011;1009;51.436;6.972;2022-10-16T06:40:10;2.60;;;1.90;;
2011;SDS011;1009;51.436;6.972;2022-10-16T06:42:39;6.53;;;2.07;;
2011;SDS011;1009;51.436;6.972;2022-10-16T06:45:08;3.40;;;1.53;;
2011;SDS011;1009;51.436;6.972;2022-10-16T06:47:35;3.53;;;1.60;;
2011;SDS011;1009;51.436;6.972;2022-10-16T06:50:02;3.93;;;1.70;;
2011;SDS011;1009;51.436;6.972;2022-10-16T06:52:31;6.07;;;2.10;;
2011;SDS011;1009;51.436;6.972;2022-10-16T06:54:58;2.90;;;1.73;;
2011;SDS011;1009;51.436;6.972;2022-10-16T06:57:25;3.40;;;1.70;;
2011;SDS011;1009;51.436;6.972;2022-10-16T06:59:52;4.33;;;2.10;;
2011;SDS011;1009;51.436;6.972;2022-10-16T07:02:20;3.60;;;2.03;;
2011;SDS011;1009;51.436;6.972;2022-10-16T07:04:47;2.60;;;1.97;;
2011;SDS011;1009;51.436;6.972;2022-10-16T07:07:14;2.90;;;1.80;;
2011;SDS011;1009;51.436;6.972;2022-10-16T07:09:40;2.00;;;1.70;;
2011;SDS011;1009;51.436;6.972;2022-10-16T07:12:07;2.33;;;2.00;;
2011;SDS011;1009;51.436;6.972;2022-10-16T07:14:34;4.37;;;1.90;;
2011;SDS011;1009;51.436;6.972;2022-10-16T07:17:00;8.50;;;2.50;;
2011;SDS011;1009;51.436;6.972;2022-10-16T07:19:29;3.10;;;2.07;;
2011;SDS011;1009;51.436;6.972;2022-10-16T07:21:56;4.73;;;2.20;;
2011;SDS011;1009;51.436;6.972;2022-10-16T07:24:23;2.40;;;1.97;;
2011;SDS011;1009;51.436;6.972;2022-10-16T07:26:49;4.40;;;2.40;;
2011;SDS011;1009;51.436;6.972;2022-10-16T07:29:17;3.80;;;2.30;;
2011;SDS011;1009;51.436;6.972;2022-10-16T07:31:45;4.33;;;1.97;;
2011;SDS011;1009;51.436;6.972;2022-10-16T07:34:13;4.23;;;1.90;;
2011;SDS011;1009;51.436;6.972;2022-10-16T07:36:43;2.30;;;1.90;;
2011;SDS011;1009;51.436;6.972;2022-10-16T07:39:11;5.53;;;2.07;;
2011;SDS011;1009;51.436;6.972;2022-10-16T07:41:37;4.10;;;2.23;;
2011;SDS011;1009;51.436;6.972;2022-10-16T07:44:04;4.70;;;1.97;;
2011;SDS011;1009;51.436;6.972;2022-10-16T07:46:31;3.33;;;1.73;;
2011;SDS011;1009;51.436;6.972;2022-10-16T07:49:00;3.70;;;1.70;;
2011;SDS011;1009;51.436;6.972;2022-10-16T07:51:27;2.50;;;1.77;;
2011;SDS011;1009;51.436;6.972;2022-10-16T07:53:56;2.27;;;1.93;;
2011;SDS011;1009;51.436;6.972;2022-10-16T07:56:22;3.20;;;1.97;;
2011;SDS011;1009;51.436;6.972;2022-10-16T07:58:50;5.07;;;2.10;;
2011;SDS011;1009;51.436;6.972;2022-10-16T08:01:17;2.90;;;1.70;;
2011;SDS011;1009;51.436;6.972;2022-10-16T08:03:44;3.13;;;1.70;;
2011;SDS011;1009;51.436;6.972;2022-10-16T08:06:12;4.37;;;1.80;;
2011;SDS011;1009;51.436;6.972;2022-10-16T08:08:39;2.80;;;1.50;;
2011;SDS011;1009;51.436;6.972;2022-10-16T08:11:07;4.13;;;1.80;;
2011;SDS011;1009;51.436;6.972;2022-10-16T08:13:34;6.10;;;1.60;;
2011;SDS011;1009;51.436;6.972;2022-10-16T08:16:01;4.47;;;2.47;;
2011;SDS011;1009;51.436;6.972;2022-10-16T08:18:32;8.27;;;1.90;;
2011;SDS011;1009;51.436;6.972;2022-10-16T08:21:00;4.50;;;2.07;;
2011;SDS011;1009;51.436;6.972;2022-10-16T08:23:30;3.03;;;1.50;;
2011;SDS011;1009;51.436;6.972;2022-10-16T08:26:03;3.57;;;1.63;;
2011;SDS011;1009;51.436;6.972;2022-10-16T08:28:31;3.33;;;1.80;;
2011;SDS011;1009;51.436;6.972;2022-10-16T08:31:04;3.80;;;1.27;;
2011;SDS011;1009;51.436;6.972;2022-10-16T08:33:32;3.30;;;1.30;;
2011;SDS011;1009;51.436;6.972;2022-10-16T08:36:00;1.90;;;1.20;;
2011;SDS011;1009;51.436;6.972;2022-10-16T08:38:27;2.93;;;1.50;;
2011;SDS011;1009;51.436;6.972;2022-10-16T08:40:54;5.90;;;1.23;;
2011;SDS011;1009;51.436;6.972;2022-10-16T08:43:27;5.20;;;1.30;;
2011;SDS011;1009;51.436;6.972;2022-10-16T08:46:06;3.83;;;1.40;;
2011;SDS011;1009;51.436;6.972;2022-10-16T08:48:40;17.73;;;1.73;;
2011;SDS011;1009;51.436;6.972;2022-10-16T08:51:10;3.37;;;1.40;;
2011;SDS011;1009;51.436;6.972;2022-10-16T08:53:49;3.57;;;1.27;;
2011;SDS011;1009;51.436;6.972;2022-10-16T08:56:18;1.50;;;0.80;;
2011;SDS011;1009;51.436;6.972;2022-10-16T08:58:46;1.83;;;1.00;;
2011;SDS011;1009;51.436;6.972;2022-10-16T09:01:15;3.60;;;1.00;;
2011;SDS011;1009;51.436;6.972;2022-10-16T09:03:58;2.07;;;0.90;;
2011;SDS011;1009;51.436;6.972;2022-10-16T09:06:52;2.00;;;0.87;;
2011;SDS011;1009;51.436;6.972;2022-10-16T09:09:27;3.17;;;1.10;;
2011;SDS011;1009;51.436;6.972;2022-10-16T09:12:15;3.33;;;1.10;;
2011;SDS011;1009;51.436;6.972;2022-10-16T09:14:52;2.40;;;1.00;;
2011;SDS011;1009;51.436;6.972;2022-10-16T09:17:32;2.20;;;0.97;;
2011;SDS011;1009;51.436;6.972;2022-10-16T09:20:12;3.40;;;1.20;;
2011;SDS011;1009;51.436;6.972;2022-10-16T09:22:40;4.27;;;1.33;;
2011;SDS011;1009;51.436;6.972;2022-10-16T09:25:10;4.30;;;0.93;;
2011;SDS011;1009;51.436;6.972;2022-10-16T09:27:38;3.60;;;1.00;;
2011;SDS011;1009;51.436;6.972;2022-10-16T09:30:10;1.80;;;1.10;;
2011;SDS011;1009;51.436;6.972;2022-10-16T09:32:40;5.63;;;1.43;;
2011;SDS011;1009;51.436;6.972;2022-10-16T09:35:09;5.33;;;1.30;;
2011;SDS011;1009;51.436;6.972;2022-10-16T09:37:40;5.00;;;0.90;;
2011;SDS011;1009;51.436;6.972;2022-10-16T09:40:11;3.13;;;1.20;;
2011;SDS011;1009;51.436;6.972;2022-10-16T09:42:39;1.90;;;0.80;;
2011;SDS011;1009;51.436;6.972;2022-10-16T09:45:19;5.17;;;1.00;;
2011;SDS011;1009;51.436;6.972;2022-10-16T09:47:49;4.03;;;1.20;;
2011;SDS011;1009;51.436;6.972;2022-10-16T09:50:20;5.17;;;1.30;;
2011;SDS011;1009;51.436;6.972;2022-10-16T09:52:51;3.53;;;0.87;;
2011;SDS011;1009;51.436;6.972;2022-10-16T09:55:29;2.20;;;1.03;;
2011;SDS011;1009;51.436;6.972;2022-10-16T09:57:56;1.90;;;1.03;;
2011;SDS011;1009;51.436;6.972;2022-10-16T10:00:23;2.90;;;1.13;;
2011;SDS011;1009;51.436;6.972;2022-10-16T10:02:52;3.97;;;1.00;;
2011;SDS011;1009;51.436;6.972;2022-10-16T10:05:20;1.60;;;0.90;;
2011;SDS011;1009;51.436;6.972;2022-10-16T10:07:53;1.50;;;0.83;;
2011;SDS011;1009;51.436;6.972;2022-10-16T10:10:22;2.50;;;0.90;;
2011;SDS011;1009;51.436;6.972;2022-10-16T10:12:50;8.13;;;1.40;;
2011;SDS011;1009;51.436;6.972;2022-10-16T10:15:17;4.80;;;1.23;;
2011;SDS011;1009;51.436;6.972;2022-10-16T10:17:47;1.67;;;0.80;;
2011;SDS011;1009;51.436;6.972;2022-10-16T10:20:21;3.73;;;1.10;;
2011;SDS011;1009;51.436;6.972;2022-10-16T10:22:50;3.40;;;0.93;;
2011;SDS011;1009;51.436;6.972;2022-10-16T10:30:56;2.50;;;1.40;;
2011;SDS011;1009;51.436;6.972;2022-10-16T10:33:27;3.53;;;1.23;;
2011;SDS011;1009;51.436;6.972;2022-10-16T10:36:05;2.57;;;0.90;;
2011;SDS011;1009;51.436;6.972;2022-10-16T10:38:39;2.40;;;1.17;;
2011;SDS011;1009;51.436;6.972;2022-10-16T10:44:22;1.23;;;0.70;;
2011;SDS011;1009;51.436;6.972;2022-10-16T10:47:01;3.50;;;0.90;;
2011;SDS011;1009;51.436;6.972;2022-10-16T10:49:39;3.50;;;0.93;;
2011;SDS011;1009;51.436;6.972;2022-10-16T10:52:24;7.47;;;1.30;;
2011;SDS011;1009;51.436;6.972;2022-10-16T10:54:57;2.27;;;0.90;;
2011;SDS011;1009;51.436;6.972;2022-10-16T10:57:35;3.47;;;1.30;;
2011;SDS011;1009;51.436;6.972;2022-10-16T11:00:14;2.07;;;1.10;;
2011;SDS011;1009;51.436;6.972;2022-10-16T11:02:50;2.93;;;0.97;;
2011;SDS011;1009;51.436;6.972;2022-10-16T11:05:27;2.17;;;1.00;;
2011;SDS011;1009;51.436;6.972;2022-10-16T11:08:02;1.97;;;0.80;;
2011;SDS011;1009;51.436;6.972;2022-10-16T11:10:33;1.77;;;0.70;;
2011;SDS011;1009;51.436;6.972;2022-10-16T11:13:11;1.97;;;0.77;;
2011;SDS011;1009;51.436;6.972;2022-10-16T11:15:46;2.07;;;0.80;;
2011;SDS011;1009;51.436;6.972;2022-10-16T11:18:18;3.20;;;1.10;;
2011;SDS011;1009;51.436;6.972;2022-10-16T11:20:49;4.73;;;1.07;;
2011;SDS011;1009;51.436;6.972;2022-10-16T11:23:21;2.10;;;1.10;;
2011;SDS011;1009;51.436;6.972;2022-10-16T11:25:53;3.10;;;1.00;;
2011;SDS011;1009;51.436;6.972;2022-10-16T11:28:23;2.47;;;0.80;;
2011;SDS011;1009;51.436;6.972;2022-10-16T11:30:57;3.27;;;0.67;;
2011;SDS011;1009;51.436;6.972;2022-10-16T11:33:30;2.70;;;0.87;;
2011;SDS011;1009;51.436;6.972;2022-10-16T11:36:01;2.90;;;0.60;;
2011;SDS011;1009;51.436;6.972;2022-10-16T11:38:37;2.50;;;0.80;;
2011;SDS011;1009;51.436;6.972;2022-10-16T11:41:11;1.80;;;0.53;;
2011;SDS011;1009;51.436;6.972;2022-10-16T11:43:45;4.53;;;0.77;;
2011;SDS011;1009;51.436;6.972;2022-10-16T11:46:20;2.63;;;0.90;;
2011;SDS011;1009;51.436;6.972;2022-10-16T11:48:50;2.80;;;1.33;;
2011;SDS011;1009;51.436;6.972;2022-10-16T11:51:25;2.70;;;0.90;;
2011;SDS011;1009;51.436;6.972;2022-10-16T11:54:02;4.00;;;1.07;;
2011;SDS011;1009;51.436;6.972;2022-10-16T11:56:36;2.30;;;0.70;;
2011;SDS011;1009;51.436;6.972;2022-10-16T11:59:07;1.30;;;0.67;;
2011;SDS011;1009;51.436;6.972;2022-10-16T12:01:42;3.43;;;0.93;;
2011;SDS011;1009;51.436;6.972;2022-10-16T12:04:15;3.43;;;0.77;;
2011;SDS011;1009;51.436;6.972;2022-10-16T12:06:48;4.30;;;0.87;;
2011;SDS011;1009;51.436;6.972;2022-10-16T12:09:24;2.50;;;0.80;;
2011;SDS011;1009;51.436;6.972;2022-10-16T12:11:53;5.97;;;0.93;;
2011;SDS011;1009;51.436;6.972;2022-10-16T12:17:24;2.47;;;0.60;;
2011;SDS011;1009;51.436;6.972;2022-10-16T12:19:57;2.60;;;0.80;;
2011;SDS011;1009;51.436;6.972;2022-10-16T12:22:25;4.07;;;0.70;;
2011;SDS011;1009;51.436;6.972;2022-10-16T12:24:56;3.77;;;1.10;;
2011;SDS011;1009;51.436;6.972;2022-10-16T12:27:24;2.33;;;0.77;;
2011;SDS011;1009;51.436;6.972;2022-10-16T12:29:54;3.67;;;0.90;;
2011;SDS011;1009;51.436;6.972;2022-10-16T12:32:25;2.87;;;0.87;;
2011;SDS011;1009;51.436;6.972;2022-10-16T12:34:55;3.47;;;0.87;;
2011;SDS011;1009;51.436;6.972;2022-10-16T12:37:22;14.80;;;3.10;;
2011;SDS011;1009;51.436;6.972;2022-10-16T12:39:51;2.70;;;0.70;;
2011;SDS011;1009;51.436;6.972;2022-10-16T12:42:22;3.53;;;1.47;;
2011;SDS011;1009;51.436;6.972;2022-10-16T12:44:58;2.03;;;0.50;;
2011;SDS011;1009;51.436;6.972;2022-10-16T12:47:35;3.23;;;0.80;;
2011;SDS011;1009;51.436;6.972;2022-10-16T12:50:03;5.20;;;1.40;;
2011;SDS011;1009;51.436;6.972;2022-10-16T12:52:53;3.00;;;0.70;;
2011;SDS011;1009;51.436;6.972;2022-10-16T12:55:21;7.47;;;0.90;;
2011;SDS011;1009;51.436;6.972;2022-10-16T12:57:56;2.30;;;0.60;;
2011;SDS011;1009;51.436;6.972;2022-10-16T13:00:48;2.03;;;0.77;;
2011;SDS011;1009;51.436;6.972;2022-10-16T13:03:25;3.50;;;1.10;;
2011;SDS011;1009;51.436;6.972;2022-10-16T13:06:04;3.13;;;0.77;;
2011;SDS011;1009;51.436;6.972;2022-10-16T13:08:44;3.13;;;0.70;;
2011;SDS011;1009;51.436;6.972;2022-10-16T13:11:29;3.00;;;0.97;;
2011;SDS011;1009;51.436;6.972;2022-10-16T13:14:30;3.00;;;1.00;;
2011;SDS011;1009;51.436;6.972;2022-10-16T13:17:11;6.20;;;1.20;;
2011;SDS011;1009;51.436;6.972;2022-10-16T13:19:47;3.80;;;1.10;;
2011;SDS011;1009;51.436;6.972;2022-10-16T13:22:23;3.67;;;1.40;;
2011;SDS011;1009;51.436;6.972;2022-10-16T13:25:00;3.77;;;0.90;;
2011;SDS011;1009;51.436;6.972;2022-10-16T13:27:37;3.87;;;1.30;;
2011;SDS011;1009;51.436;6.972;2022-10-16T13:30:13;7.10;;;1.00;;
2011;SDS011;1009;51.436;6.972;2022-10-16T13:32:44;4.23;;;1.00;;
2011;SDS011;1009;51.436;6.972;2022-10-16T13:35:19;3.03;;;0.90;;
2011;SDS011;1009;51.436;6.972;2022-10-16T13:37:48;2.07;;;0.80;;
2011;SDS011;1009;51.436;6.972;2022-10-16T13:40:18;4.90;;;0.97;;
2011;SDS011;1009;51.436;6.972;2022-10-16T13:42:47;1.90;;;1.00;;
2011;SDS011;1009;51.436;6.972;2022-10-16T13:45:19;1.50;;;0.60;;
2011;SDS011;1009;51.436;6.972;2022-10-16T13:47:47;1.40;;;0.70;;
2011;SDS011;1009;51.436;6.972;2022-10-16T13:50:15;2.83;;;0.70;;
2011;SDS011;1009;51.436;6.972;2022-10-16T13:52:43;3.87;;;1.00;;
2011;SDS011;1009;51.436;6.972;2022-10-16T13:55:10;2.13;;;0.60;;
2011;SDS011;1009;51.436;6.972;2022-10-16T13:57:38;2.43;;;0.90;;
2011;SDS011;1009;51.436;6.972;2022-10-16T14:00:17;1.50;;;0.80;;
2011;SDS011;1009;51.436;6.972;2022-10-16T14:02:49;1.73;;;0.90;;
2011;SDS011;1009;51.436;6.972;2022-10-16T14:05:19;3.37;;;1.10;;
2011;SDS011;1009;51.436;6.972;2022-10-16T14:07:47;3.63;;;0.60;;
2011;SDS011;1009;51.436;6.972;2022-10-16T14:10:20;2.17;;;0.90;;
2011;SDS011;1009;51.436;6.972;2022-10-16T14:12:57;3.00;;;1.07;;
2011;SDS011;1009;51.436;6.972;2022-10-16T14:15:27;5.90;;;0.70;;
2011;SDS011;1009;51.436;6.972;2022-10-16T14:17:55;3.43;;;0.73;;
2011;SDS011;1009;51.436;6.972;2022-10-16T14:20:24;4.13;;;0.80;;
2011;SDS011;1009;51.436;6.972;2022-10-16T14:22:59;2.47;;;0.70;;
2011;SDS011;1009;51.436;6.972;2022-10-16T14:25:28;3.67;;;0.97;;
2011;SDS011;1009;51.436;6.972;2022-10-16T14:27:57;3.17;;;0.80;;
2011;SDS011;1009;51.436;6.972;2022-10-16T14:30:28;2.90;;;1.13;;
2011;SDS011;1009;51.436;6.972;2022-10-16T14:32:56;1.53;;;0.60;;
2011;SDS011;1009;51.436;6.972;2022-10-16T14:35:25;2.70;;;0.80;;
2011;SDS011;1009;51.436;6.972;2022-10-16T14:37:54;2.70;;;0.80;;
2011;SDS011;1009;51.436;6.972;2022-10-16T14:40:23;1.93;;;0.70;;
2011;SDS011;1009;51.436;6.972;2022-10-16T14:42:52;2.60;;;0.70;;
2011;SDS011;1009;51.436;6.972;2022-10-16T14:45:20;2.47;;;0.90;;
2011;SDS011;1009;51.436;6.972;2022-10-16T14:47:52;4.20;;;1.00;;
2011;SDS011;1009;51.436;6.972;2022-10-16T14:50:21;6.90;;;0.90;;
2011;SDS011;1009;51.436;6.972;2022-10-16T14:52:48;2.70;;;0.83;;
2011;SDS011;1009;51.436;6.972;2022-10-16T14:55:15;2.70;;;0.93;;
2011;SDS011;1009;51.436;6.972;2022-10-16T14:57:42;1.60;;;0.70;;
2011;SDS011;1009;51.436;6.972;2022-10-16T15:00:26;4.03;;;0.87;;
2011;SDS011;1009;51.436;6.972;2022-10-16T15:02:54;4.23;;;0.70;;
2011;SDS011;1009;51.436;6.972;2022-10-16T15:05:22;1.33;;;0.57;;
2011;SDS011;1009;51.436;6.972;2022-10-16T15:07:51;3.33;;;0.97;;
2011;SDS011;1009;51.436;6.972;2022-10-16T15:10:19;3.00;;;1.00;;
2011;SDS011;1009;51.436;6.972;2022-10-16T15:12:47;3.20;;;1.00;;
2011;SDS011;1009;51.436;6.972;2022-10-16T15:15:25;5.27;;;0.80;;
2011;SDS011;1009;51.436;6.972;2022-10-16T15:17:55;2.80;;;0.70;;
2011;SDS011;1009;51.436;6.972;2022-10-16T15:20:23;2.60;;;0.60;;
2011;SDS011;1009;51.436;6.972;2022-10-16T15:22:51;2.63;;;0.90;;
2011;SDS011;1009;51.436;6.972;2022-10-16T15:25:25;3.93;;;1.00;;
2011;SDS011;1009;51.436;6.972;2022-10-16T15:27:55;3.53;;;0.80;;
2011;SDS011;1009;51.436;6.972;2022-10-16T15:30:23;2.57;;;0.90;;
2011;SDS011;1009;51.436;6.972;2022-10-16T15:32:50;5.20;;;1.00;;
2011;SDS011;1009;51.436;6.972;2022-10-16T15:35:18;2.20;;;1.10;;
2011;SDS011;1009;51.436;6.972;2022-10-16T15:37:45;3.53;;;1.20;;
2011;SDS011;1009;51.436;6.972;2022-10-16T15:40:12;6.13;;;1.20;;
2011;SDS011;1009;51.436;6.972;2022-10-16T15:42:39;5.27;;;1.23;;
2011;SDS011;1009;51.436;6.972;2022-10-16T15:45:06;3.10;;;1.53;;